Time;durP1;ratioP1;P1;durP2;ratioP2;P2;SDS_P1;SDS_P2;PMS_P1;PMS_P2;Temp;Humidity;BMP_temperature;BMP_pressure;BME280_temperature;BME280_humidity;BME280_pressure;Samples;Min_cycle;Max_cycle;Signal;HPM_P1;HPM_P2
2021/09/14 00:29:24;;;;;;;12.10;7.40;;;;;;;15.86;67.30;100308.84;111811;1209;136535;-71
2021/09/14 00:33:32;;;;;;;9.00;6.90;;;;;;;15.88;67.24;100310.70;111307;1221;137472;-72
2021/09/14 00:54:36;;;;;;;12.90;7.20;;;;;;;15.87;67.37;100310.40;109575;1236;136945;-74
2021/09/14 00:58:39;;;;;;;10.20;6.90;;;;;;;15.82;67.39;100312.42;109473;1232;137386;-72
2021/09/14 01:02:44;;;;;;;11.70;7.10;;;;;;;15.78;67.62;100314.36;111337;1221;635615;-73
2021/09/14 01:06:53;;;;;;;8.50;7.00;;;;;;;15.74;67.70;100320.74;112168;1205;93862;-72
2021/09/14 01:11:01;;;;;;;8.60;6.90;;;;;;;15.73;67.69;100319.54;111874;1209;136454;-72
2021/09/14 01:15:10;;;;;;;11.60;7.80;;;;;;;15.72;67.86;100322.92;111709;1222;108258;-72
2021/09/14 01:19:19;;;;;;;10.20;7.70;;;;;;;15.69;68.10;100319.20;111676;1222;106407;-73
2021/09/14 01:23:30;;;;;;;11.60;7.10;;;;;;;15.74;68.07;100318.96;111268;1224;137790;-72
2021/09/14 01:27:57;;;;;;;10.90;7.60;;;;;;;15.77;68.21;100323.20;111064;1221;93939;-72
2021/09/14 01:35:55;;;;;;;;;;;;;;;;;;;;;
2021/09/14 01:40:16;;;;;;;10.20;7.30;;;;;;;15.84;68.28;100316.15;110073;1233;106895;-72
2021/09/14 01:43:46;;;;;;;;;;;;;;;;;;;;;
2021/09/14 01:56:17;;;;;;;8.40;6.90;;;;;;;15.96;68.27;100314.09;109741;1232;136817;-72
2021/09/14 02:58:38;;;;;;;8.90;6.70;;;;;;;16.08;68.60;100312.06;111884;1217;136706;-73
2021/09/14 03:01:32;;;;;;;9.60;6.90;;;;;;;16.08;68.58;100317.83;111447;1222;137013;-72
2021/09/14 03:05:40;;;;;;;8.70;6.10;;;;;;;16.08;68.62;100318.74;110989;1224;107267;-72
2021/09/14 03:09:47;;;;;;;11.50;7.10;;;;;;;16.05;68.51;100321.34;110825;1227;94876;-72
2021/09/14 03:22:04;;;;;;;9.60;7.10;;;;;;;16.07;68.66;100321.77;109489;1229;137301;-73
2021/09/14 03:34:21;;;;;;;12.30;7.40;;;;;;;15.99;68.88;100325.73;111450;1219;635747;-72
2021/09/14 03:38:30;;;;;;;10.40;7.40;;;;;;;15.95;68.83;100332.93;112038;1204;137368;-73
2021/09/14 03:42:39;;;;;;;9.50;7.30;;;;;;;15.91;68.89;100328.39;112045;1207;93956;-72
2021/09/14 03:46:47;;;;;;;9.90;7.00;;;;;;;15.93;69.08;100326.86;111527;1220;107092;-72
2021/09/14 03:55:27;;;;;;;11.10;7.70;;;;;;;15.99;69.12;100335.20;110662;1228;107526;-72
2021/09/14 04:03:42;;;;;;;13.50;9.90;;;;;;;15.99;69.09;100340.24;109988;1227;137471;-73
2021/09/14 04:15:21;;;;;;;10.40;7.70;;;;;;;16.04;69.12;100345.63;111972;1206;137789;-73
2021/09/14 04:19:30;;;;;;;13.50;10.70;;;;;;;16.08;69.31;100342.59;112048;1206;94087;-73
2021/09/14 04:23:27;;;;;;;;;;;;;;;;;;;;;
2021/09/14 04:27:36;;;;;;;12.40;8.30;;;;;;;16.15;69.24;100350.23;111541;1214;139112;-72
2021/09/14 04:32:11;;;;;;;11.10;8.00;;;;;;;16.18;69.12;100354.00;111262;1224;108613;-73
2021/09/14 04:39:33;;;;;;;10.70;7.30;;;;;;;16.20;69.22;100354.73;112227;1199;136636;-72
2021/09/14 04:43:13;;;;;;;9.60;7.50;;;;;;;16.25;69.05;100355.71;112378;1207;93988;-73
2021/09/14 04:55:01;;;;;;;12.50;7.90;;;;;;;16.25;69.11;100363.80;112025;1214;107504;-73
2021/09/14 04:59:09;;;;;;;10.80;7.40;;;;;;;16.24;69.03;100363.98;111733;1211;137160;-73
2021/09/14 05:07:44;;;;;;;;;;;;;;;;;;;;;
2021/09/14 05:11:19;;;;;;;;;;;;;;;;;;;;;
2021/09/14 05:23:35;;;;;;;;;;;;;;;;;;;;;
2021/09/14 05:26:53;;;;;;;;;;;;;;;;;;;;;
2021/09/14 05:31:35;;;;;;;14.60;9.70;;;;;;;16.71;69.09;100379.22;110641;1224;137339;-74
2021/09/14 05:35:40;;;;;;;12.00;8.20;;;;;;;16.68;68.94;100382.70;111048;1221;137672;-73
2021/09/14 05:39:11;;;;;;;;;;;;;;;;;;;;;
2021/09/14 05:42:26;;;;;;;9.90;6.70;;;;;;;16.73;68.67;100383.48;111029;1224;137155;-74
2021/09/14 05:45:56;;;;;;;13.70;6.60;;;;;;;16.79;68.71;100381.02;111256;1222;108986;-73
2021/09/14 05:50:08;;;;;;;;;;;;;;;;;;;;;
2021/09/14 05:53:47;;;;;;;11.90;6.50;;;;;;;16.89;68.59;100379.58;111239;1222;137186;-72
2021/09/14 05:57:55;;;;;;;10.00;6.40;;;;;;;16.91;68.39;100377.75;111827;1210;95221;-74
2021/09/14 06:01:45;;;;;;;9.10;6.70;;;;;;;16.98;68.40;100373.48;111723;1211;137519;-73
2021/09/14 06:06:20;;;;;;;12.00;6.70;;;;;;;17.10;68.30;100377.51;111514;1220;137389;-74
2021/09/14 06:10:40;;;;;;;10.30;6.10;;;;;;;17.19;68.02;100382.25;111441;1214;109119;-73
2021/09/14 06:14:46;;;;;;;9.10;5.80;;;;;;;17.31;68.03;100384.04;110618;1218;136904;-73
2021/09/14 06:18:51;;;;;;;12.70;7.30;;;;;;;17.46;67.88;100382.09;110297;1227;137668;-73
2021/09/14 06:26:56;;;;;;;9.00;6.80;;;;;;;17.73;67.23;100389.35;111997;1209;94062;-74
2021/09/14 06:31:19;;;;;;;12.20;6.50;;;;;;;17.78;67.19;100398.00;111747;1214;136709;-73
2021/09/14 06:33:52;;;;;;;12.80;8.30;;;;;;;17.83;67.18;100398.23;111190;1224;108150;-72
2021/09/14 06:38:17;;;;;;;15.60;12.10;;;;;;;17.90;67.02;100398.17;111100;1219;137269;-73
2021/09/14 06:41:37;;;;;;;9.40;7.40;;;;;;;18.00;66.66;100398.41;110284;1229;108413;-73
2021/09/14 06:54:10;;;;;;;12.00;8.20;;;;;;;18.13;66.27;100399.77;109562;1230;108620;-74
2021/09/14 07:06:29;;;;;;;14.50;11.00;;;;;;;18.66;65.72;100397.67;111895;1218;93976;-73
2021/09/14 07:10:38;;;;;;;;;;;;;;;;;;;;;
2021/09/14 07:14:38;;;;;;;14.00;8.10;;;;;;;18.90;64.57;100405.72;111488;1221;137058;-73
2021/09/14 07:18:59;;;;;;;;;;;;;;;;;;;;;
2021/09/14 07:23:14;;;;;;;8.50;7.00;;;;;;;19.07;64.30;100405.83;110582;1228;94215;-73
2021/09/14 07:27:20;;;;;;;9.00;7.00;;;;;;;19.26;64.37;100405.65;110133;1228;136816;-74
2021/09/14 07:30:37;;;;;;;12.60;7.30;;;;;;;19.46;64.03;100402.90;109757;1228;109141;-73
2021/09/14 07:34:34;;;;;;;;;;;;;;;;;;;;;
2021/09/14 07:39:02;;;;;;;8.40;6.80;;;;;;;20.17;63.06;100407.13;109755;1229;137227;-74
2021/09/14 07:42:32;;;;;;;;;;;;;;;;;;;;;
2021/09/14 07:46:11;;;;;;;;;;;;;;;;;;;;;
2021/09/14 07:54:02;;;;;;;11.70;6.60;;;;;;;23.64;58.26;100395.63;110156;1231;108135;-72
2021/09/14 07:57:35;;;;;;;;;;;;;;;;;;;;;
2021/09/14 08:01:46;;;;;;;12.70;5.60;;;;;;;28.98;50.12;100383.02;110735;1226;95154;-72
2021/09/14 08:04:26;;;;;;;9.00;5.20;;;;;;;30.93;47.11;100382.20;110807;1224;136879;-73
2021/09/14 08:08:05;;;;;;;;;;;;;;;;;;;;;
2021/09/14 08:11:26;;;;;;;7.90;3.90;;;;;;;33.83;41.74;100381.90;112039;1216;98560;-72
2021/09/14 08:14:58;;;;;;;6.00;3.90;;;;;;;35.20;39.16;100385.73;111864;1217;136811;-74
2021/09/14 08:17:56;;;;;;;4.80;3.20;;;;;;;34.95;36.51;100388.90;112044;1209;94948;-73
2021/09/14 08:21:08;;;;;;;6.10;3.00;;;;;;;34.03;36.42;100386.88;112132;1203;136919;-72
2021/09/14 08:24:06;;;;;;;;;;;;;;;;;;;;;
2021/09/14 08:27:14;;;;;;;6.50;3.90;;;;;;;32.11;36.61;100390.91;112131;1210;137028;-73
2021/09/14 08:30:51;;;;;;;5.60;4.60;;;;;;;31.16;36.97;100393.80;112200;1203;108426;-74
2021/09/14 08:34:18;;;;;;;5.80;3.10;;;;;;;30.47;37.57;100394.38;112147;1203;136929;-73
2021/09/14 08:37:46;;;;;;;5.20;4.10;;;;;;;29.60;38.07;100391.45;112346;1206;94844;-73
2021/09/14 08:41:15;;;;;;;7.80;3.80;;;;;;;28.82;38.53;100394.97;112311;1206;136628;-73
2021/09/14 08:44:45;;;;;;;8.20;4.00;;;;;;;29.02;39.25;100392.40;112465;1206;107398;-73
2021/09/14 08:48:24;;;;;;;;;;;;;;;;;;;;;
2021/09/14 08:52:01;;;;;;;5.70;3.20;;;;;;;32.01;37.86;100394.45;112272;1200;137011;-73
2021/09/14 08:55:05;;;;;;;4.90;3.10;;;;;;;33.35;36.35;100395.84;112506;1206;94818;-74
2021/09/14 08:57:55;;;;;;;7.10;3.30;;;;;;;34.45;34.78;100401.67;112321;1200;137013;-73
2021/09/14 09:01:30;;;;;;;8.80;3.20;;;;;;;35.38;33.79;100404.04;112399;1206;96242;-73
2021/09/14 09:04:27;;;;;;;4.70;2.40;;;;;;;36.44;32.13;100404.48;112257;1207;136819;-73
2021/09/14 09:07:46;;;;;;;;;;;;;;;;;;;;;
2021/09/14 09:11:24;;;;;;;2.40;1.70;;;;;;;37.48;30.48;100401.23;112265;1199;137105;-73
2021/09/14 09:14:15;;;;;;;6.30;2.00;;;;;;;36.95;29.55;100402.23;112449;1206;99744;-73
2021/09/14 09:17:35;;;;;;;3.50;1.90;;;;;;;35.89;29.73;100406.29;112272;1206;136527;-73
2021/09/14 09:21:01;;;;;;;3.30;2.00;;;;;;;34.76;30.15;100409.02;112397;1201;100041;-73
2021/09/14 09:24:17;;;;;;;;;;;;;;;;;;;;;
2021/09/14 09:27:31;;;;;;;4.60;1.90;;;;;;;32.95;31.52;100412.60;112429;1199;94843;-73
2021/09/14 09:31:22;;;;;;;2.60;1.80;;;;;;;32.19;32.49;100411.21;112417;1199;109470;-73
2021/09/14 09:34:40;;;;;;;3.10;1.70;;;;;;;32.19;33.17;100414.00;112302;1206;137029;-74
2021/09/14 09:37:51;;;;;;;2.80;1.50;;;;;;;32.85;33.09;100415.47;112364;1206;97682;-73
2021/09/14 09:41:10;;;;;;;2.60;1.50;;;;;;;33.79;32.27;100410.16;112240;1200;136641;-72
2021/09/14 09:44:26;;;;;;;4.90;4.00;;;;;;;34.71;31.48;100408.42;112396;1208;94930;-73
2021/09/14 09:47:36;;;;;;;2.90;1.70;;;;;;;35.71;30.57;100403.29;112225;1201;137173;-73
2021/09/14 09:50:51;;;;;;;;;;;;;;;;;;;;;
2021/09/14 09:53:55;;;;;;;2.40;1.30;;;;;;;37.37;28.40;100400.27;112305;1206;137097;-73
2021/09/14 09:56:49;;;;;;;;;;;;;;;37.47;27.82;100398.05;112451;1206;96126;-73
2021/09/14 09:59:54;;;;;;;1.80;1.40;;;;;;;37.16;27.45;100395.39;112439;1197;123597;-72
2021/09/14 10:02:48;;;;;;;2.00;1.40;;;;;;;36.60;27.23;100395.27;112516;1205;101006;-76
2021/09/14 10:05:39;;;;;;;4.30;1.70;;;;;;;35.57;26.97;100399.16;112467;1197;137385;-72
2021/09/14 10:08:48;;;;;;;3.00;1.70;;;;;;;34.03;27.68;100399.63;112508;1200;100175;-74
2021/09/14 10:11:59;;;;;;;3.90;2.10;;;;;;;32.47;29.34;100403.79;112366;1198;137075;-74
2021/09/14 10:15:16;;;;;;;4.00;2.20;;;;;;;31.46;30.52;100407.52;112430;1205;94874;-73
2021/09/14 10:18:34;;;;;;;5.50;2.70;;;;;;;30.48;31.82;100409.48;112387;1205;136919;-73
2021/09/14 10:21:44;;;;;;;4.50;2.30;;;;;;;29.64;32.84;100408.27;112453;1199;107381;-73
2021/09/14 10:25:14;;;;;;;3.40;2.10;;;;;;;29.03;33.52;100410.22;112343;1200;137304;-73
2021/09/14 10:28:31;;;;;;;;;;;;;;;;;;;;;
2021/09/14 10:32:02;;;;;;;5.10;2.40;;;;;;;27.63;35.43;100412.88;112588;1205;94964;-73
2021/09/14 10:35:28;;;;;;;4.40;2.30;;;;;;;27.02;36.62;100420.33;112379;1205;136986;-73
2021/09/14 10:39:06;;;;;;;3.20;2.10;;;;;;;26.59;37.20;100415.28;112551;1205;106657;-73
2021/09/14 10:42:44;;;;;;;3.80;2.00;;;;;;;26.14;38.22;100419.90;112395;1205;137338;-74
2021/09/14 10:45:52;;;;;;;4.30;2.10;;;;;;;25.52;38.82;100413.98;112576;1197;94904;-73
2021/09/14 10:49:42;;;;;;;5.30;2.40;;;;;;;24.86;39.57;100417.45;112471;1197;136732;-72
2021/09/14 10:57:09;;;;;;;5.10;2.80;;;;;;;24.23;41.49;100421.55;112166;1210;107095;-73
2021/09/14 11:00:35;;;;;;;2.90;2.10;;;;;;;24.03;41.66;100423.60;112014;1206;137036;-73
2021/09/14 11:04:09;;;;;;;2.80;2.20;;;;;;;23.81;42.28;100424.65;112108;1211;94838;-73
2021/09/14 11:08:18;;;;;;;2.70;2.00;;;;;;;23.54;42.48;100428.28;112016;1203;136655;-73
2021/09/14 11:20:20;;;;;;;5.00;2.90;;;;;;;22.83;43.96;100426.11;111857;1216;137395;-73
2021/09/14 11:24:24;;;;;;;3.60;2.20;;;;;;;22.76;44.78;100416.88;111748;1209;137153;-73
2021/09/14 11:32:49;;;;;;;;;;;;;;;;;;;;;
2021/09/14 11:36:35;;;;;;;;;;;;;;;;;;;;;
2021/09/14 11:41:05;;;;;;;4.40;2.70;;;;;;;22.37;46.50;100415.28;110847;1222;109385;-72
2021/09/14 11:44:37;;;;;;;;;;;;;;;;;;;;;
2021/09/14 11:48:59;;;;;;;4.40;2.90;;;;;;;22.44;46.89;100410.45;110505;1228;137401;-73
2021/09/14 11:53:04;;;;;;;3.80;2.70;;;;;;;22.59;46.96;100412.23;110697;1219;110573;-73
2021/09/14 11:56:34;;;;;;;4.00;2.60;;;;;;;22.71;46.92;100408.47;110630;1222;137042;-73
2021/09/14 11:59:48;;;;;;;6.40;2.50;;;;;;;22.74;46.58;100409.26;110582;1225;137355;-73
2021/09/14 12:02:33;;;;;;;4.00;2.60;;;;;;;22.80;46.54;100408.05;110681;1223;94852;-73
2021/09/14 12:06:11;;;;;;;;;;;;;;;;;;;;;
2021/09/14 12:10:23;;;;;;;2.70;2.20;;;;;;;22.93;46.21;100407.98;110725;1225;107171;-74
2021/09/14 12:17:40;;;;;;;3.10;2.50;;;;;;;23.05;45.97;100409.98;110245;1228;108280;-74
2021/09/14 12:20:53;;;;;;;2.80;2.20;;;;;;;23.17;45.87;100404.41;110514;1223;137011;-74
2021/09/14 12:24:48;;;;;;;;;;;;;;;;;;;;;
2021/09/14 12:28:24;;;;;;;2.80;2.10;;;;;;;23.29;45.23;100403.00;110828;1226;110306;-73
2021/09/14 12:32:02;;;;;;;1.80;1.70;;;;;;;23.30;45.24;100397.94;110687;1219;137450;-72
2021/09/14 12:39:26;;;;;;;;;;;;;;;;;;;;;
2021/09/14 12:42:55;;;;;;;2.40;2.20;;;;;;;23.60;45.07;100396.02;110712;1226;137326;-73
2021/09/14 12:46:34;;;;;;;;;;;;;;;;;;;;;
2021/09/14 12:49:55;;;;;;;2.80;2.40;;;;;;;23.77;44.62;100390.02;110818;1213;137322;-73
2021/09/14 12:53:14;;;;;;;2.20;2.00;;;;;;;23.76;44.37;100390.96;111608;1219;108665;-73
2021/09/14 12:56:43;;;;;;;2.50;2.30;;;;;;;23.76;44.23;100387.36;111462;1219;137844;-73
2021/09/14 13:00:13;;;;;;;5.80;2.10;;;;;;;23.85;44.78;100389.15;111553;1214;96365;-73
2021/09/14 13:03:57;;;;;;;3.30;2.60;;;;;;;23.90;44.87;100388.73;111613;1213;109861;-73
2021/09/14 13:07:56;;;;;;;;;;;;;;;;;;;;;
2021/09/14 13:12:47;;;;;;;2.30;2.00;;;;;;;24.13;44.46;100387.73;111094;1216;110237;-73
2021/09/14 13:20:00;;;;;;;3.40;2.70;;;;;;;24.49;44.33;100384.29;110842;1215;137470;-73
2021/09/14 13:23:40;;;;;;;3.50;3.10;;;;;;;24.62;44.19;100384.34;110961;1224;109835;-73
2021/09/14 13:26:50;;;;;;;4.80;2.40;;;;;;;24.58;44.06;100385.73;111066;1215;137408;-73
2021/09/14 13:30:02;;;;;;;3.50;2.30;;;;;;;24.57;44.24;100385.02;111277;1222;107605;-73
2021/09/14 13:33:44;;;;;;;3.30;2.60;;;;;;;24.52;44.21;100385.39;111288;1221;137656;-73
2021/09/14 13:37:24;;;;;;;;;;;;;;;;;;;;;
2021/09/14 13:41:05;;;;;;;;;;;;;;;;;;;;;
2021/09/14 13:48:38;;;;;;;3.30;2.90;;;;;;;24.30;44.49;100375.99;111605;1217;107583;-73
2021/09/14 13:52:19;;;;;;;;;;;;;;;;;;;;;
2021/09/14 13:55:32;;;;;;;3.50;2.60;;;;;;;24.16;44.73;100375.09;112186;1205;96318;-73
2021/09/14 13:58:32;;;;;;;3.70;2.50;;;;;;;23.85;44.76;100377.02;112150;1202;110803;-73
2021/09/14 14:02:13;;;;;;;3.40;2.80;;;;;;;23.76;45.29;100377.29;112202;1202;106339;-73
2021/09/14 14:05:52;;;;;;;3.20;2.60;;;;;;;23.68;45.67;100376.17;112381;1201;108969;-74
2021/09/14 14:09:49;;;;;;;3.50;3.20;;;;;;;23.58;45.88;100370.30;112299;1206;137412;-73
2021/09/14 14:13:20;;;;;;;5.00;2.90;;;;;;;23.30;45.85;100374.36;112396;1206;96337;-73
2021/09/14 14:17:29;;;;;;;3.20;2.90;;;;;;;23.18;46.23;100375.36;112331;1200;137171;-72
2021/09/14 14:21:38;;;;;;;6.60;3.30;;;;;;;23.04;46.83;100378.70;112076;1202;137565;-73
2021/09/14 14:24:27;;;;;;;3.30;2.80;;;;;;;22.96;47.23;100377.60;112163;1202;109204;-73
2021/09/14 14:27:48;;;;;;;;;;;;;;;;;;;;;
2021/09/14 14:31:06;;;;;;;4.60;3.40;;;;;;;22.77;47.07;100381.70;112101;1211;96517;-73
2021/09/14 14:34:35;;;;;;;4.00;3.60;;;;;;;22.68;47.27;100380.54;112068;1202;137184;-72
2021/09/14 14:37:52;;;;;;;4.20;3.60;;;;;;;22.57;47.32;100379.44;112182;1202;106281;-73
2021/09/14 14:41:51;;;;;;;;;;;;;;;;;;;;;
2021/09/14 14:45:41;;;;;;;5.00;4.10;;;;;;;22.28;47.70;100383.37;112164;1203;97865;-73
2021/09/14 14:49:31;;;;;;;5.50;4.60;;;;;;;22.14;47.88;100383.94;112211;1204;96208;-72
2021/09/14 14:53:21;;;;;;;5.80;5.30;;;;;;;22.02;48.39;100382.56;112049;1206;137204;-72
2021/09/14 14:56:34;;;;;;;7.90;6.40;;;;;;;21.82;48.75;100382.90;111943;1215;107490;-73
2021/09/14 15:00:17;;;;;;;9.50;7.10;;;;;;;21.76;49.27;100384.59;112043;1212;108598;-72
2021/09/14 15:04:08;;;;;;;7.60;6.80;;;;;;;21.70;49.53;100382.16;111875;1208;137865;-73
2021/09/14 15:08:17;;;;;;;7.20;5.90;;;;;;;21.66;49.68;100382.78;111755;1211;96212;-73
2021/09/14 15:12:41;;;;;;;7.00;6.30;;;;;;;21.62;49.95;100384.69;110992;1216;136955;-73
2021/09/14 15:16:23;;;;;;;7.10;6.40;;;;;;;21.53;49.93;100382.04;110989;1223;137517;-72
2021/09/14 15:24:36;;;;;;;;;;;;;;;;;;;;;
2021/09/14 15:36:25;;;;;;;;;;;;;;;;;;;;;
2021/09/14 15:39:59;;;;;;;8.10;7.40;;;;;;;21.61;49.98;100378.97;110677;1221;137362;-73
2021/09/14 15:43:24;;;;;;;7.50;6.80;;;;;;;21.60;49.82;100377.59;111036;1217;96238;-73
2021/09/14 15:46:44;;;;;;;8.00;7.20;;;;;;;21.66;49.80;100379.10;111260;1213;137223;-72
2021/09/14 15:50:36;;;;;;;;;;;;;;;;;;;;;
2021/09/14 15:55:09;;;;;;;7.00;6.40;;;;;;;21.75;49.61;100378.84;111858;1211;106228;-73
2021/09/14 15:58:34;;;;;;;;;;;;;;;;;;;;;
2021/09/14 16:06:37;;;;;;;;;;;;;;;;;;;;;
2021/09/14 16:09:58;;;;;;;8.40;7.60;;;;;;;21.47;49.70;100371.52;111771;1211;137576;-73
2021/09/14 16:14:31;;;;;;;8.50;7.70;;;;;;;21.33;49.98;100372.62;111863;1211;106219;-73
2021/09/14 16:18:19;;;;;;;8.60;7.80;;;;;;;21.19;50.35;100371.86;111410;1214;137440;-74
2021/09/14 16:22:11;;;;;;;;;;;;;;;;;;;;;
2021/09/14 16:25:55;;;;;;;;;;;;;;;;;;;;;
2021/09/14 16:30:00;;;;;;;11.70;9.00;;;;;;;20.76;51.44;100383.52;111068;1216;137374;-72
2021/09/14 16:34:10;;;;;;;12.60;9.20;;;;;;;20.60;51.72;100383.25;110842;1226;106904;-73
2021/09/14 16:38:15;;;;;;;10.90;9.80;;;;;;;20.41;52.17;100384.73;110734;1221;112302;-73
2021/09/14 16:42:24;;;;;;;11.40;10.20;;;;;;;20.26;52.40;100381.20;110181;1222;137708;-73
2021/09/14 16:50:36;;;;;;;10.20;9.20;;;;;;;19.92;53.16;100391.32;110456;1229;109904;-73
2021/09/14 16:54:24;;;;;;;10.40;9.30;;;;;;;19.75;53.44;100385.83;110115;1225;137706;-72
2021/09/14 17:05:56;;;;;;;32.90;23.80;;;;;;;19.29;54.32;100391.11;109912;1225;137797;-73
2021/09/14 17:10:17;;;;;;;22.60;16.90;;;;;;;19.17;54.62;100393.70;109793;1227;108441;-73
2021/09/14 17:26:40;;;;;;;11.40;10.20;;;;;;;18.79;55.91;100410.66;109962;1231;137972;-73
2021/09/14 17:34:21;;;;;;;12.40;11.10;;;;;;;18.52;56.48;100412.66;110071;1229;106608;-73
2021/09/14 17:38:32;;;;;;;11.40;9.50;;;;;;;18.40;56.78;100416.56;109889;1231;137686;-75
2021/09/14 17:42:26;;;;;;;12.10;10.40;;;;;;;18.33;57.05;100419.14;110182;1223;137901;-74
2021/09/14 17:58:27;;;;;;;13.00;11.70;;;;;;;18.00;57.78;100413.95;110233;1228;106283;-74
2021/09/14 18:21:19;;;;;;;;;;;;;;;;;;;;;
2021/09/14 18:25:13;;;;;;;15.90;11.80;;;;;;;17.75;59.26;100423.87;111824;1208;137144;-72
2021/09/14 18:33:30;;;;;;;15.50;12.20;;;;;;;17.67;59.47;100423.63;111565;1221;108185;-73
2021/09/14 18:37:32;;;;;;;;;;;;;;;;;;;;;
2021/09/14 18:46:32;;;;;;;14.20;12.70;;;;;;;17.53;59.52;100419.46;110274;1230;94002;-74
2021/09/14 18:58:10;;;;;;;17.30;13.30;;;;;;;17.60;59.71;100414.33;111453;1216;637146;-73
2021/09/14 19:02:20;;;;;;;17.50;14.90;;;;;;;17.58;59.77;100416.77;112085;1204;136909;-73
2021/09/14 19:06:30;;;;;;;13.10;11.60;;;;;;;17.52;59.76;100410.92;112091;1205;95807;-73
2021/09/14 19:14:37;;;;;;;16.20;14.50;;;;;;;17.51;60.13;100407.83;111657;1212;137438;-74
2021/09/14 19:31:02;;;;;;;;;;;;;;;;;;;;;
2021/09/14 19:43:11;;;;;;;14.50;12.70;;;;;;;17.27;60.48;100428.05;112195;1205;94105;-74
2021/09/14 19:51:19;;;;;;;14.10;11.90;;;;;;;17.14;60.58;100430.19;111911;1208;137337;-75
2021/09/14 19:55:05;;;;;;;12.90;11.00;;;;;;;17.09;60.67;100433.84;111817;1214;107410;-75
2021/09/14 19:59:15;;;;;;;19.40;16.40;;;;;;;17.04;60.73;100433.21;111685;1211;137112;-75
2021/09/14 20:03:49;;;;;;;15.30;12.80;;;;;;;16.94;61.02;100429.73;111440;1215;137417;-74
2021/09/14 20:16:22;;;;;;;13.00;11.10;;;;;;;16.95;61.86;100434.95;110070;1225;137306;-74
2021/09/14 20:20:27;;;;;;;15.80;11.60;;;;;;;16.98;61.72;100440.20;110158;1223;106199;-74
2021/09/14 20:24:33;;;;;;;12.50;11.20;;;;;;;16.97;61.90;100437.98;109964;1231;137449;-73
2021/09/14 20:28:19;;;;;;;15.10;12.10;;;;;;;16.97;62.05;100432.88;109901;1231;137569;-73
2021/09/14 20:31:43;;;;;;;20.00;14.30;;;;;;;17.01;62.27;100433.38;110354;1221;109829;-74
2021/09/14 20:40:19;;;;;;;20.10;16.10;;;;;;;17.03;62.26;100437.29;110442;1220;137474;-74
2021/09/14 20:43:53;;;;;;;15.10;11.60;;;;;;;16.97;62.37;100439.23;110230;1223;95008;-74
2021/09/14 20:47:59;;;;;;;13.00;11.00;;;;;;;16.97;62.42;100438.35;110275;1228;137657;-74
2021/09/14 20:55:47;;;;;;;;;;;;;;;;;;;;;
2021/09/14 21:00:17;;;;;;;18.50;10.90;;;;;;;16.97;63.04;100440.61;109981;1224;137308;-74
2021/09/14 21:03:40;;;;;;;;;;;;;;;;;;;;;
2021/09/14 21:11:12;;;;;;;14.80;11.70;;;;;;;16.94;63.38;100441.16;109805;1228;137793;-74
2021/09/14 21:15:25;;;;;;;12.40;9.90;;;;;;;16.91;63.49;100439.73;109928;1227;107040;-73
2021/09/14 21:19:31;;;;;;;15.40;10.50;;;;;;;16.89;63.65;100446.67;109539;1231;136564;-73
2021/09/14 21:27:03;;;;;;;14.60;11.40;;;;;;;16.85;64.02;100445.82;111437;1220;637962;-74
2021/09/14 21:35:22;;;;;;;15.20;11.40;;;;;;;16.67;64.69;100447.17;112317;1206;137458;-74
2021/09/14 21:39:31;;;;;;;16.60;10.80;;;;;;;16.57;65.09;100450.65;112256;1205;106014;-74
2021/09/14 21:43:40;;;;;;;14.20;9.90;;;;;;;16.53;65.58;100450.58;112018;1214;137330;-74
2021/09/14 21:47:49;;;;;;;16.20;10.80;;;;;;;16.47;65.87;100449.25;111842;1216;138065;-74
2021/09/14 21:52:24;;;;;;;15.70;11.20;;;;;;;16.45;66.12;100450.44;111675;1213;93933;-74
2021/09/14 22:11:55;;;;;;;14.00;11.30;;;;;;;16.23;67.20;100434.25;111406;1220;637759;-73
2021/09/14 22:16:28;;;;;;;16.10;10.70;;;;;;;16.21;67.43;100435.39;112347;1203;93828;-75
2021/09/14 22:20:13;;;;;;;13.80;10.20;;;;;;;16.19;67.62;100436.93;112047;1205;136896;-73
2021/09/14 22:24:21;;;;;;;13.80;10.50;;;;;;;16.15;67.84;100435.70;111820;1210;137646;-74
2021/09/14 22:28:30;;;;;;;15.20;11.10;;;;;;;16.11;68.05;100434.72;111686;1212;106428;-73
2021/09/14 22:32:39;;;;;;;12.50;10.30;;;;;;;16.06;68.33;100434.96;111787;1211;108875;-73
2021/09/14 22:37:13;;;;;;;14.70;11.00;;;;;;;16.04;68.60;100435.59;111542;1213;138011;-73
2021/09/14 22:53:00;;;;;;;;;;;;;;;;;;;;;
2021/09/14 23:01:36;;;;;;;14.30;10.80;;;;;;;15.93;69.78;100419.67;111328;1221;636070;-73
2021/09/14 23:18:37;;;;;;;13.40;10.50;;;;;;;15.88;70.03;100416.41;111588;1222;107260;-73
2021/09/14 23:27:04;;;;;;;17.30;10.60;;;;;;;15.85;70.11;100419.23;110567;1229;137102;-73
2021/09/14 23:31:10;;;;;;;14.80;10.20;;;;;;;15.81;70.15;100417.14;110093;1233;94392;-73
2021/09/14 23:42:40;;;;;;;14.00;9.40;;;;;;;15.78;70.31;100412.36;111427;1220;634218;-74
2021/09/14 23:46:48;;;;;;;12.00;9.50;;;;;;;15.76;70.40;100409.30;112032;1213;137236;-73
2021/09/14 23:50:58;;;;;;;17.30;11.00;;;;;;;15.79;70.40;100408.63;111969;1209;136980;-72
2021/09/14 23:55:06;;;;;;;16.60;9.90;;;;;;;15.79;70.43;100411.98;111875;1218;107197;-74
2021/09/14 23:59:39;;;;;;;12.00;9.80;;;;;;;15.78;70.35;100409.40;111747;1211;137616;-72
